• Join FlightAware (Why Join?)
  • Login
  • US Flag 
05:12PM EDT


 

Airport Tracker/Info


-or-


 

Live Flight TrackerFlight Track Log ✈ N1944E ✈ 14-Aug-2013 ✈ KJAC - KCOE

Flight Track Log - Related Links

Times and Time Zones

All times are in EDT time to prevent confusion due to time zone crossing. See the N1944E flight status page for this flight to view local times or setup timezone preferences in your user account.

Time Position Orientation Groundspeed Altitude Reporting Facility
EDT Latitude Longitude Course Direction KTS MPH feet Rate Location/Type
11:23AM 43.5800 -110.7514 316° Northwest 113 130 7,200  Level Salt Lake Center
11:24AM 43.5553 -110.7886 228° Southwest 130 150 8,000 720 Climbing Salt Lake Center
11:25AM 43.5347 -110.8300 236° Southwest 130 150 8,800 720 Climbing Salt Lake Center
11:26AM 43.5056 -110.8631 219° Southwest 132 152 9,600 720 Climbing Salt Lake Center
11:27AM 43.8223 -111.0200 317° Northwest  Level Estimated
11:27AM 43.4897 -110.9108 245° Southwest 143 165 10,400  Level Salt Lake Center
11:28AM 43.8581 -111.0673 316° Northwest  Level Estimated
11:28AM 43.4983 -110.9683 282° West 137 158 11,400  Level Salt Lake Center
11:29AM 43.5197 -111.0075 307° West 138 159 12,200 720 Climbing Salt Lake Center
11:30AM 43.5453 -111.0539 307° West 138 159 13,000 660 Climbing Salt Lake Center
11:31AM 43.5767 -111.0856 324° Northwest 141 162 13,600 660 Climbing Salt Lake Center
11:32AM 43.6133 -111.1233 323° Northwest 146 168 14,400 720 Climbing Salt Lake Center
11:33AM 43.6453 -111.1589 321° Northwest 150 173 15,100 720 Climbing Salt Lake Center
11:34AM 43.6825 -111.1986 322° Northwest 151 174 15,900 720 Climbing Salt Lake Center
11:35AM 43.7153 -111.2300 325° Northwest 151 174 16,600 720 Climbing Salt Lake Center
11:36AM 43.7517 -111.2656 325° Northwest 147 169 17,500 540 Climbing Salt Lake Center
11:37AM 43.7739 -111.3044 308° West 138 159 17,800 240 Climbing Salt Lake Center
11:38AM 43.8022 -111.3528 309° West 140 161 18,000 60 Climbing Salt Lake Center
11:39AM 43.8342 -111.3953 316° Northwest 153 176 18,000  Level Salt Lake Center
11:40AM 43.8686 -111.4347 320° Northwest 162 186 18,000  Level Salt Lake Center
11:41AM 43.9111 -111.4761 325° Northwest 166 191 18,000  Level Salt Lake Center
11:42AM 43.9444 -111.5183 318° Northwest 167 192 18,000  Level Salt Lake Center
11:43AM 43.9833 -111.5697 316° Northwest 170 196 18,000  Level Salt Lake Center
11:44AM 44.0164 -111.6128 317° Northwest 170 196 18,000  Level Salt Lake Center
11:45AM 44.0553 -111.6639 317° Northwest 171 197 18,000  Level Salt Lake Center
11:46AM 44.0892 -111.7083 317° Northwest 172 198 18,000  Level Salt Lake Center
11:48AM 44.1294 -111.7597 318° Northwest 174 200 18,000  Level Salt Lake Center
11:49AM 44.1642 -111.8036 318° Northwest 175 201 18,000  Level Salt Lake Center
11:50AM 44.2050 -111.8553 318° Northwest 176 203 18,000  Level Salt Lake Center
11:51AM 44.2397 -111.9011 317° Northwest 177 204 18,000  Level Salt Lake Center
11:52AM 44.2744 -111.9458 317° Northwest 178 205 18,000  Level Salt Lake Center
11:53AM 44.3158 -111.9975 318° Northwest 178 205 18,000  Level Salt Lake Center
11:54AM 44.3519 -112.0414 319° Northwest 178 205 18,000  Level Salt Lake Center
11:55AM 44.3939 -112.0942 318° Northwest 180 207 18,000  Level Salt Lake Center
11:56AM 44.4303 -112.1386 319° Northwest 181 208 18,000  Level Salt Lake Center
11:57AM 44.4722 -112.1933 317° Northwest 182 209 18,000  Level Salt Lake Center
11:58AM 44.5078 -112.2386 318° Northwest 182 209 18,000  Level Salt Lake Center
11:59AM 44.5489 -112.2933 317° Northwest 182 209 18,000  Level Salt Lake Center
12:00PM 44.5844 -112.3392 317° Northwest 182 209 18,000  Level Salt Lake Center
12:01PM 44.6258 -112.3925 317° Northwest 181 208 18,000  Level Salt Lake Center
12:02PM 44.6608 -112.4372 318° Northwest 179 206 18,000  Level Salt Lake Center
12:03PM 44.6956 -112.4833 317° Northwest 179 206 18,000  Level Salt Lake Center
12:04PM 44.7369 -112.5372 317° Northwest 180 207 18,000  Level Salt Lake Center
12:05PM 44.7739 -112.5822 319° Northwest 183 211 18,000  Level Salt Lake Center
12:06PM 44.8153 -112.6361 317° Northwest 182 209 18,000  Level Salt Lake Center
12:07PM 44.8492 -112.6833 315° West 181 208 18,000  Level Salt Lake Center
12:08PM 44.8911 -112.7367 318° Northwest 181 208 18,000  Level Salt Lake Center
12:09PM 44.9267 -112.7844 316° Northwest 183 211 18,000  Level Salt Lake Center
12:10PM 44.9686 -112.8378 318° Northwest 183 211 18,000  Level Salt Lake Center
12:11PM 45.0033 -112.8847 316° Northwest 181 208 18,000  Level Salt Lake Center
12:12PM 45.0469 -112.9378 319° Northwest 183 211 18,000  Level Salt Lake Center
12:13PM 45.0831 -112.9853 317° Northwest 184 212 18,000  Level Salt Lake Center
12:14PM 45.1239 -113.0400 317° Northwest 183 211 18,000  Level Salt Lake Center
12:15PM 45.1594 -113.0875 317° Northwest 183 211 18,000  Level Salt Lake Center
12:16PM 45.2003 -113.1433 316° Northwest 183 211 18,000  Level Salt Lake Center
12:18PM 45.2358 -113.1911 317° Northwest 183 211 18,000  Level Salt Lake Center
12:19PM 45.2711 -113.2392 316° Northwest 183 211 18,000  Level Salt Lake Center
12:20PM 45.3122 -113.2950 316° Northwest 183 211 18,000  Level Salt Lake Center
12:21PM 45.3478 -113.3414 317° Northwest 183 211 18,000  Level Salt Lake Center
12:22PM 45.3900 -113.3956 318° Northwest 182 209 18,000  Level Salt Lake Center
12:23PM 45.4261 -113.4425 318° Northwest 183 211 18,000  Level Salt Lake Center
12:24PM 45.4667 -113.4994 315° West 184 212 18,000  Level Salt Lake Center
12:25PM 45.5014 -113.5489 315° West 183 211 18,000  Level Salt Lake Center
12:26PM 45.5431 -113.6028 318° Northwest 182 209 18,000  Level Salt Lake Center
12:27PM 45.5769 -113.6506 315° West 180 207 18,000  Level Salt Lake Center
12:28PM 45.6167 -113.7025 318° Northwest 182 209 18,000  Level Salt Lake Center
12:29PM 45.6547 -113.7525 317° Northwest 186 214 18,000  Level Salt Lake Center
12:30PM 45.6917 -113.8042 316° Northwest 187 215 18,000  Level Salt Lake Center
12:31PM 45.7278 -113.8539 316° Northwest 183 211 18,000  Level Salt Lake Center
12:32PM 45.7636 -113.9008 318° Northwest 179 206 18,000  Level Salt Lake Center
12:33PM 45.8078 -113.9614 316° Northwest 180 207 18,100  Climbing Salt Lake Center
12:34PM 45.8436 -114.0106 316° Northwest 180 207 18,100  Level Salt Lake Center
12:35PM 45.8803 -114.0600 317° Northwest 181 208 18,100  Level Salt Lake Center
12:36PM 45.9167 -114.1094 317° Northwest 180 207 18,100  Level Salt Lake Center
12:37PM 45.9522 -114.1614 315° West 182 209 18,100  Level Salt Lake Center
12:38PM 45.9886 -114.2122 316° Northwest 182 209 18,100  Level Salt Lake Center
12:39PM 46.0328 -114.2731 316° Northwest 183 211 18,100  Level Salt Lake Center
12:40PM 46.0686 -114.3242 315° West 183 211 18,100  Level Salt Lake Center
12:41PM 46.1056 -114.3753 316° Northwest 184 212 18,100  Level Salt Lake Center
12:42PM 46.1428 -114.4261 317° Northwest 184 212 18,100  Level Salt Lake Center
12:43PM 46.1800 -114.4767 317° Northwest 184 212 18,100  Level Salt Lake Center
12:44PM 46.2169 -114.5289 316° Northwest 185 213 18,100  Level Salt Lake Center
12:45PM 46.2617 -114.5919 316° Northwest 187 215 18,100  Level Salt Lake Center
12:46PM 46.2986 -114.6458 315° West 188 216 18,100  Level Salt Lake Center
12:47PM 46.3350 -114.6939 318° Northwest 183 211 18,100  Level Salt Lake Center
12:49PM 46.3714 -114.7450 316° Northwest 183 211 18,100  Level Salt Lake Center
12:50PM 46.4081 -114.7986 315° West 187 215 18,100  Level Salt Lake Center
12:51PM 46.4444 -114.8506 315° West 184 212 18,100  Level Salt Lake Center
12:52PM 46.4889 -114.9117 317° Northwest 183 211 18,100  Level Salt Lake Center
12:53PM 46.5258 -114.9647 315° West 186 214 18,100  Level Salt Lake Center
12:54PM 46.5625 -115.0169 316° Northwest 185 213 18,100  Level Salt Lake Center
12:55PM 46.5956 -115.0644 315° West 183 211 18,100  Level Seattle Center
12:56PM 46.6325 -115.1172 316° Northwest 186 214 18,100  Level Seattle Center
12:57PM 46.6703 -115.1689 317° Northwest 186 214 18,100  Level Seattle Center
12:58PM 46.7089 -115.2264 314° West 185 213 18,100  Level Seattle Center
12:59PM 46.7467 -115.2800 316° Northwest 187 215 18,100  Level Seattle Center
01:00PM 46.7833 -115.3317 316° Northwest 185 213 18,100  Level Seattle Center
01:01PM 46.8244 -115.3917 315° West 187 215 18,100  Level Seattle Center
01:02PM 46.8614 -115.4447 316° Northwest 186 214 18,100  Level Seattle Center
01:03PM 46.8969 -115.4978 314° West 185 213 18,100  Level Seattle Center
01:04PM 46.9347 -115.5503 317° Northwest 187 215 18,100  Level Seattle Center
01:05PM 46.9711 -115.6058 314° West 188 216 18,100  Level Seattle Center
01:06PM 47.0072 -115.6592 315° West 187 215 18,100  Level Seattle Center
01:07PM 47.0511 -115.7222 316° Northwest 186 214 18,100 -240 Level Seattle Center
01:08PM 47.0872 -115.7778 314° West 187 215 17,700 -720 Descending Seattle Center
01:09PM 47.1289 -115.8403 314° West 205 236 16,700 -1,080 Descending Seattle Center
01:10PM 47.1731 -115.9075 314° West 224 258 15,600 -960 Descending Seattle Center
01:11PM 47.2189 -115.9697 317° Northwest 225 259 14,800 -840 Descending Seattle Center
01:12PM 47.2622 -116.0292 317° Northwest 218 251 13,900 -1,020 Descending Seattle Center
01:13PM 47.3042 -116.0911 315° West 215 247 12,800 -1,020 Descending Seattle Center
01:14PM 47.3439 -116.1547 313° West 213 245 11,900 -960 Descending Seattle Center
01:15PM 47.3842 -116.2158 314° West 207 238 10,900 -1,080 Descending Seattle Center
01:16PM 47.4319 -116.2889 314° West 207 238 9,700 -1,200 Descending Seattle Center